Airfield :
LOGIN :

Register | Disclaimer

   EN    FR    IT 

 










Legend :    VFR   Marginal VFR   IFR   Intensive IFR   Very Intensive IFR
Visi :
Ceiling :
>= 8 km
>= 3000ft
5 to 8 km
1000 to 3000 ft
1500m to 5 km
500 to 1000 ft
800 to 1500m
200 to 500 ft
< 800m
< 200 ft
Symbols :   Thunderstorms  Fog  Heavy snow  Heavy precipitations  Wind > 20 kt
SIGMETs :     Misc.  Thunderstorms  Icing  Turbulence  Mountain Waves  Volcanic Ashes






- Airport Elevation : 580 ft


LFOA - Avord

CURRENT METAR :
  • 252230Z AUTO 28014KT 9999 FEW045/// SCT068/// BKN080/// ///TCU 10/05 Q1012

EXPIRED METARs :
  • 252200Z AUTO 28012KT 9999 FEW048 BKN080 09/05 Q1012
  • 252130Z AUTO 28010KT CAVOK 09/04 Q1012
  • 252100Z AUTO 28009KT CAVOK 09/05 Q1012
  • 252030Z AUTO 29009KT CAVOK 10/05 Q1012
  • 252000Z AUTO 29008KT CAVOK 10/06 Q1011

TAF TAF LFOA
Valid from the 25 at 15:00 until the 26 at 15:00 UTC


251400Z 2515/2615 28010G20KT 9999 BKN025 BKN040
TEMPO 2515/2520 28015G30KT 3000 SHRA SCT010 BKN040CB
PROB40 2515/2517 33020G35KT 1400 TSRA
PROB30
TEMPO 2603/2607 3000 BR BKN009
TEMPO 2607/2615 31015G30KT 4000 SHRA SCT010 BKN020CB



MET'MAP, your aeronautical weather chart ! - Copyright ORBIFLY December 2007 - Disclaimer

ORBIFLY MET'MAP TEAM :

Programming & Development : Alexandra Zaïnal
Concept & original design : Baudouin d'Aumeries
Assistance for programming : Marc-Olivier Méhu
Technical & hardware support : Manuel Goepfert

Contact : metmap@orbifly.com




SOURCES & CREDITS :

   NOAA